Time;durP1;ratioP1;P1;durP2;ratioP2;P2;SDS_P1;SDS_P2;PMS_P1;PMS_P2;Temp;Humidity;BMP_temperature;BMP_pressure;BME280_temperature;BME280_humidity;BME280_pressure;Samples;Min_cycle;Max_cycle;Signal;HPM_P1;HPM_P2
2023/04/11 00:00:18;;;;;;;3.07;2.23;;;12.90;84.80;;;15.12;60.25;100589.72;5034355;28;20286;-62
2023/04/11 00:02:46;;;;;;;3.90;3.23;;;12.90;84.70;;;15.10;60.45;100575.84;5032867;28;20214;-62
2023/04/11 00:05:13;;;;;;;4.00;3.60;;;12.90;84.90;;;15.12;60.10;100573.81;5036402;28;20722;-60
2023/04/11 00:07:40;;;;;;;3.10;2.80;;;12.90;84.70;;;15.12;60.28;100563.22;5037087;28;20659;-64
2023/04/11 00:10:08;;;;;;;3.30;3.00;;;12.90;84.90;;;15.10;60.47;100557.28;5037482;28;20191;-63
2023/04/11 00:12:35;;;;;;;3.30;3.00;;;12.80;85.00;;;15.10;60.01;100554.63;5037682;28;20240;-62
2023/04/11 00:15:05;;;;;;;3.00;2.70;;;12.80;84.80;;;15.10;59.71;100544.03;5037885;28;20527;-64
2023/04/11 00:17:32;;;;;;;3.97;3.13;;;12.80;84.60;;;15.07;59.91;100539.97;5036934;28;20709;-63
2023/04/11 00:20:06;;;;;;;3.93;2.90;;;12.80;84.50;;;15.10;59.60;100534.25;5036982;28;20713;-63
2023/04/11 00:22:33;;;;;;;4.33;2.90;;;12.80;84.20;;;15.13;59.39;100533.03;5036594;28;20674;-64
2023/04/11 00:25:00;;;;;;;3.27;2.97;;;12.80;83.90;;;15.18;59.22;100534.03;5036501;28;20222;-62
2023/04/11 00:27:27;;;;;;;3.20;2.60;;;12.80;84.00;;;15.21;58.92;100546.06;5036676;28;20232;-63
2023/04/11 00:29:56;;;;;;;3.20;2.40;;;12.80;83.60;;;15.23;58.77;100536.06;5036657;28;20191;-63
2023/04/11 00:32:25;;;;;;;3.10;2.80;;;12.80;83.50;;;15.19;58.57;100532.19;5035744;28;20209;-63
2023/04/11 00:34:52;;;;;;;3.30;2.63;;;12.80;83.50;;;15.15;58.61;100526.50;5036435;28;20211;-64
2023/04/11 00:37:21;;;;;;;2.70;2.50;;;12.80;83.30;;;15.08;58.75;100517.75;5036919;28;20625;-63
2023/04/11 00:39:53;;;;;;;3.60;2.83;;;12.80;83.20;;;15.05;58.84;100512.06;5036855;28;20268;-64
2023/04/11 00:42:20;;;;;;;3.20;2.43;;;12.80;82.90;;;15.02;58.69;100515.13;5036642;28;20171;-64
2023/04/11 00:44:47;;;;;;;4.07;2.70;;;12.80;82.80;;;15.09;58.29;100510.59;5036153;28;20214;-63
2023/04/11 00:47:14;;;;;;;3.13;2.70;;;12.80;82.40;;;15.02;58.63;100515.13;5036423;28;20202;-64
2023/04/11 00:49:43;;;;;;;3.27;2.90;;;12.80;82.80;;;15.00;58.80;100507.34;5035685;28;20199;-63
2023/04/11 00:52:11;;;;;;;2.73;2.47;;;12.70;82.70;;;14.97;58.60;100506.97;5036503;28;20198;-63
2023/04/11 00:54:39;;;;;;;2.90;2.57;;;12.70;82.70;;;14.91;58.91;100508.63;5035905;28;20217;-63
2023/04/11 00:57:07;;;;;;;2.90;2.67;;;12.70;83.00;;;14.89;59.25;100516.78;5036610;28;20202;-64
2023/04/11 00:59:34;;;;;;;3.53;2.10;;;12.70;83.30;;;14.96;58.91;100510.63;5036170;28;20198;-61
2023/04/11 01:02:01;;;;;;;4.80;3.07;;;12.70;82.90;;;14.94;58.70;100513.50;5036231;28;20199;-64
2023/04/11 01:04:28;;;;;;;2.60;2.40;;;12.60;83.10;;;14.88;58.95;100514.34;5035502;28;20558;-63
2023/04/11 01:07:04;;;;;;;4.67;2.70;;;12.60;83.00;;;14.81;59.00;100514.34;5035589;28;20305;-62
2023/04/11 01:09:34;;;;;;;4.03;3.30;;;12.60;83.10;;;14.84;59.19;100513.94;5034886;28;20186;-64
2023/04/11 01:12:03;;;;;;;3.43;2.60;;;12.60;83.30;;;14.86;58.73;100516.38;5035632;28;20543;-64
2023/04/11 01:14:30;;;;;;;3.73;3.23;;;12.60;83.00;;;14.88;58.83;100519.66;5034330;28;20206;-63
2023/04/11 01:17:00;;;;;;;3.13;2.83;;;12.60;83.00;;;14.88;58.62;100504.53;5035810;28;20203;-67
2023/04/11 01:19:29;;;;;;;4.27;2.80;;;12.60;83.10;;;14.88;58.50;100522.31;5036138;28;20190;-64
2023/04/11 01:22:00;;;;;;;6.40;3.30;;;12.60;83.00;;;14.88;58.49;100514.34;5047600;28;20278;-63
2023/04/11 01:24:29;;;;;;;3.70;2.87;;;12.60;82.90;;;14.91;58.37;100513.91;5015713;28;20285;-63
2023/04/11 01:26:56;;;;;;;2.93;2.70;;;12.60;83.40;;;14.96;57.97;100518.59;5014999;28;20718;-63
2023/04/11 01:29:23;;;;;;;4.43;3.20;;;12.60;82.50;;;14.93;58.17;100533.88;5015903;28;20188;-64
2023/04/11 01:31:51;;;;;;;3.57;2.50;;;12.60;82.50;;;15.08;57.82;100562.00;5015564;28;20294;-63
2023/04/11 01:34:20;;;;;;;2.97;2.60;;;12.60;82.60;;;15.18;57.52;100578.28;5015260;28;20243;-62
2023/04/11 01:36:47;;;;;;;1.20;1.10;;;12.60;82.60;;;15.14;56.12;100599.09;5029202;28;20206;-63
2023/04/11 01:39:14;;;;;;;0.97;0.97;;;12.60;80.70;;;15.06;55.58;100585.25;5035417;28;20203;-64
2023/04/11 01:41:44;;;;;;;1.60;0.90;;;12.50;79.30;;;14.91;55.36;100598.72;5035602;28;20182;-64
2023/04/11 01:44:12;;;;;;;1.20;0.80;;;12.40;78.50;;;14.80;55.12;100597.53;5034937;28;20222;-61
2023/04/11 01:46:39;;;;;;;2.60;0.90;;;12.30;78.30;;;14.67;54.83;100592.22;5035478;28;20198;-63
2023/04/11 01:49:07;;;;;;;1.03;0.90;;;12.20;78.00;;;14.52;54.71;100575.75;5034128;28;20532;-63
2023/04/11 01:51:35;;;;;;;1.17;0.87;;;12.10;77.80;;;14.42;54.83;100575.31;5034929;28;20671;-64
2023/04/11 01:54:02;;;;;;;2.30;0.77;;;12.00;77.90;;;14.35;54.91;100569.22;5030624;28;20719;-63
2023/04/11 01:56:29;;;;;;;1.00;0.90;;;11.80;78.00;;;14.28;54.80;100557.78;5050411;28;20198;-63
2023/04/11 01:58:57;;;;;;;1.33;0.73;;;11.70;78.20;;;14.22;54.63;100546.16;5035067;28;20191;-63
2023/04/11 02:01:25;;;;;;;1.30;0.87;;;11.70;78.10;;;14.18;54.51;100541.47;5033738;28;20198;-62
2023/04/11 02:03:52;;;;;;;2.03;0.97;;;11.60;77.90;;;14.11;54.54;100538.00;5034797;28;20215;-64
2023/04/11 02:06:19;;;;;;;1.43;0.77;;;11.50;77.90;;;14.06;54.74;100529.84;5034520;28;20245;-63
2023/04/11 02:08:46;;;;;;;1.17;0.70;;;11.50;78.10;;;14.05;54.72;100522.91;5050134;28;20190;-62
2023/04/11 02:11:13;;;;;;;0.83;0.80;;;11.50;78.20;;;14.07;54.71;100526.19;5034637;28;20205;-63
2023/04/11 02:13:40;;;;;;;0.70;0.70;;;11.40;78.30;;;14.09;54.60;100518.88;5034201;28;20202;-60
2023/04/11 02:16:16;;;;;;;2.67;0.90;;;11.40;78.20;;;14.09;54.42;100534.75;5034473;28;20183;-62
2023/04/11 02:18:45;;;;;;;1.83;0.90;;;11.40;77.80;;;14.08;54.20;100528.63;5034923;28;20197;-63
2023/04/11 02:21:12;;;;;;;1.47;1.00;;;11.40;77.80;;;14.09;54.71;100545.34;5034467;28;20198;-64
2023/04/11 02:23:39;;;;;;;12.63;1.17;;;11.40;78.50;;;14.04;54.65;100542.47;5033989;28;20199;-64
2023/04/11 02:26:06;;;;;;;1.97;0.80;;;11.40;78.00;;;14.02;54.67;100542.69;5033972;28;20206;-63
2023/04/11 02:28:33;;;;;;;0.87;0.80;;;11.40;78.00;;;13.94;54.75;100542.03;5034317;28;20555;-63
2023/04/11 02:31:01;;;;;;;0.93;0.60;;;11.40;77.70;;;13.88;54.67;100542.88;5034683;28;20659;-63
2023/04/11 02:33:32;;;;;;;0.60;0.57;;;11.40;77.60;;;13.77;55.03;100546.06;5034154;28;20194;-65
2023/04/11 02:35:59;;;;;;;0.93;0.70;;;11.30;77.80;;;13.76;54.97;100547.09;5034353;28;20179;-62
2023/04/11 02:38:26;;;;;;;0.90;0.80;;;11.30;78.10;;;13.71;55.22;100541.59;5034754;28;20218;-63
2023/04/11 02:40:53;;;;;;;2.20;1.00;;;11.20;78.40;;;13.63;55.54;100539.13;5034696;28;20211;-64
2023/04/11 02:43:20;;;;;;;1.63;0.80;;;11.20;78.70;;;13.54;55.48;100541.97;5033850;28;20547;-62
2023/04/11 02:45:47;;;;;;;1.80;0.80;;;11.10;78.40;;;13.52;55.50;100544.00;5034072;28;20218;-64
2023/04/11 02:48:14;;;;;;;0.70;0.70;;;11.00;78.50;;;13.44;55.81;100536.22;5034699;28;20311;-65
2023/04/11 02:50:43;;;;;;;3.07;1.40;;;11.00;78.80;;;13.37;56.36;100538.03;5034491;28;20600;-62
2023/04/11 02:53:10;;;;;;;2.40;0.87;;;10.90;79.40;;;13.29;56.28;100542.66;5034326;28;20209;-62
2023/04/11 02:55:37;;;;;;;1.90;0.90;;;10.90;79.40;;;13.24;56.33;100551.16;5033424;28;20214;-62
2023/04/11 02:58:04;;;;;;;1.13;0.77;;;10.90;79.20;;;13.17;56.91;100545.03;5033908;28;20213;-64
2023/04/11 03:00:31;;;;;;;1.03;0.80;;;10.80;80.00;;;13.11;56.91;100548.47;5034022;28;20277;-64
2023/04/11 03:02:58;;;;;;;4.23;0.80;;;10.70;79.90;;;13.09;56.70;100545.22;5033962;28;20202;-63
2023/04/11 03:05:25;;;;;;;1.67;0.83;;;10.70;79.60;;;13.04;56.38;100542.31;5033409;28;20594;-64
2023/04/11 03:07:53;;;;;;;1.80;1.00;;;10.60;79.30;;;13.06;56.75;100537.69;5033678;28;20202;-61
2023/04/11 03:10:20;;;;;;;1.90;1.10;;;10.60;79.90;;;13.04;56.61;100539.66;5033904;28;20582;-63
2023/04/11 03:12:47;;;;;;;5.27;1.10;;;10.50;79.60;;;13.02;56.66;100541.69;5033779;28;20533;-62
2023/04/11 03:15:16;;;;;;;3.10;1.30;;;10.50;79.90;;;12.93;56.73;100537.59;5033003;28;20732;-63
2023/04/11 03:17:43;;;;;;;1.47;0.90;;;10.50;80.20;;;12.80;57.62;100534.84;5033704;28;20195;-65
2023/04/11 03:20:18;;;;;;;1.47;1.20;;;10.40;80.30;;;12.83;57.07;100531.81;5049082;28;20222;-63
2023/04/11 03:22:45;;;;;;;2.03;0.80;;;10.40;80.10;;;12.88;57.07;100532.06;5033476;28;20213;-62
2023/04/11 03:25:14;;;;;;;2.43;1.10;;;10.40;80.20;;;12.93;57.27;100536.75;5033104;28;20217;-63
2023/04/11 03:27:40;;;;;;;1.57;0.97;;;10.40;80.60;;;12.89;57.04;100525.75;5033558;28;20186;-62
2023/04/11 03:30:09;;;;;;;1.93;1.00;;;10.40;80.50;;;12.87;57.42;100530.41;5034058;28;20663;-63
2023/04/11 03:32:36;;;;;;;1.53;0.90;;;10.40;81.10;;;12.81;57.41;100528.56;5033748;28;20244;-63
2023/04/11 03:35:04;;;;;;;3.43;1.00;;;10.40;81.20;;;12.83;57.47;100537.13;5033439;28;20210;-63
2023/04/11 03:37:31;;;;;;;2.53;1.00;;;10.40;80.80;;;12.77;57.33;100532.59;5034554;28;20210;-62
2023/04/11 03:39:58;;;;;;;3.33;1.53;;;10.30;81.10;;;12.76;57.72;100536.25;5038296;28;20198;-63
2023/04/11 03:42:26;;;;;;;3.23;1.30;;;10.30;81.00;;;12.80;57.28;100533.03;5037643;28;20238;-61
2023/04/11 03:44:53;;;;;;;2.03;1.23;;;10.30;81.00;;;12.86;57.18;100534.06;5038163;28;20230;-62
2023/04/11 03:47:20;;;;;;;2.87;1.00;;;10.30;81.20;;;12.92;56.99;100533.31;5038143;28;20236;-63
2023/04/11 03:49:47;;;;;;;3.40;1.37;;;10.30;81.40;;;13.00;56.93;100541.09;5038689;28;20679;-64
2023/04/11 03:52:16;;;;;;;4.20;1.40;;;10.30;82.10;;;13.07;56.72;100547.25;5037599;28;20305;-63
2023/04/11 03:54:43;;;;;;;2.73;1.27;;;10.30;81.20;;;13.13;56.66;100549.09;5037734;28;20210;-63
2023/04/11 03:57:13;;;;;;;2.50;1.30;;;10.40;81.20;;;13.22;56.35;100557.66;5037385;28;20194;-62
2023/04/11 03:59:41;;;;;;;2.53;1.50;;;10.40;81.00;;;13.23;56.13;100551.38;5037627;28;20226;-63
2023/04/11 04:02:08;;;;;;;3.77;1.60;;;10.40;80.80;;;13.21;56.14;100548.13;5037343;28;20191;-64
2023/04/11 04:04:37;;;;;;;5.33;1.37;;;10.40;80.60;;;13.27;56.13;100536.75;5036769;28;20211;-63
2023/04/11 04:07:04;;;;;;;1.97;1.30;;;10.50;80.70;;;13.35;56.08;100548.00;5037091;28;20190;-62
2023/04/11 04:09:31;;;;;;;2.07;1.27;;;10.50;80.80;;;13.43;55.62;100550.44;5037396;28;20519;-64
2023/04/11 04:11:58;;;;;;;7.33;1.80;;;10.50;80.70;;;13.47;55.58;100546.41;5037008;28;20260;-64
2023/04/11 04:14:25;;;;;;;4.30;1.70;;;10.60;80.60;;;13.53;55.57;100555.34;5035968;28;20222;-62
2023/04/11 04:16:53;;;;;;;9.17;1.83;;;10.60;80.60;;;13.58;55.45;100548.47;5036788;28;20187;-63
2023/04/11 04:19:20;;;;;;;5.23;1.93;;;10.70;80.40;;;13.58;55.35;100543.19;5035654;28;20199;-65
2023/04/11 04:21:48;;;;;;;5.70;1.67;;;10.70;80.10;;;13.58;55.18;100540.53;5035508;28;20202;-63
2023/04/11 04:24:16;;;;;;;5.57;1.90;;;10.80;79.90;;;13.55;55.28;100532.16;5036007;28;20232;-63
2023/04/11 04:26:44;;;;;;;5.57;2.43;;;10.70;79.70;;;13.52;55.53;100538.69;5034964;28;20705;-63
2023/04/11 04:29:11;;;;;;;2.73;1.77;;;10.80;79.90;;;13.50;55.59;100535.41;5036341;28;20652;-64
2023/04/11 04:31:39;;;;;;;4.80;2.10;;;10.70;79.90;;;13.49;55.65;100533.81;5036645;28;20543;-62
2023/04/11 04:34:08;;;;;;;5.23;1.50;;;10.80;79.80;;;13.54;55.69;100536.66;5036134;28;20238;-64
2023/04/11 04:36:45;;;;;;;6.53;1.90;;;10.80;79.90;;;13.60;55.45;100550.91;5036103;28;20203;-64
2023/04/11 04:39:16;;;;;;;5.13;2.10;;;10.80;79.90;;;13.65;55.21;100559.06;5036309;28;20208;-63
2023/04/11 04:41:44;;;;;;;4.77;2.00;;;10.80;79.90;;;13.68;55.07;100557.84;5036086;28;20204;-64
2023/04/11 04:44:11;;;;;;;6.50;2.47;;;10.80;80.00;;;13.70;54.92;100558.47;5036027;28;20214;-63
2023/04/11 04:46:38;;;;;;;3.60;2.10;;;10.80;80.00;;;13.74;55.23;100570.31;5035762;28;20663;-64
2023/04/11 04:49:08;;;;;;;5.17;2.07;;;10.80;80.40;;;13.74;55.20;100557.06;5034652;28;20648;-63
2023/04/11 04:51:35;;;;;;;4.87;1.60;;;10.90;80.30;;;13.77;55.24;100556.66;5035115;28;20206;-62
2023/04/11 04:54:03;;;;;;;6.87;2.03;;;10.90;80.50;;;13.78;55.09;100547.72;5036164;28;20695;-65
2023/04/11 04:56:31;;;;;;;4.83;2.37;;;10.90;80.20;;;13.74;55.03;100552.56;5035471;28;20730;-63
2023/04/11 04:58:58;;;;;;;5.00;2.53;;;10.90;79.90;;;13.70;54.85;100542.59;5035921;28;20290;-64
2023/04/11 05:01:25;;;;;;;5.07;1.97;;;10.90;79.80;;;13.68;55.15;100549.91;5035772;28;20602;-64
2023/04/11 05:03:57;;;;;;;5.40;2.60;;;10.90;80.00;;;13.64;55.40;100546.06;5034830;28;20222;-59
2023/04/11 05:06:30;;;;;;;5.37;2.03;;;10.80;79.60;;;13.61;55.04;100562.31;5035149;28;20599;-61
2023/04/11 05:08:59;;;;;;;4.60;2.00;;;10.80;79.90;;;13.58;55.39;100558.22;5035921;28;20198;-62
2023/04/11 05:11:28;;;;;;;3.00;1.87;;;10.80;80.00;;;13.59;55.61;100570.44;5036319;28;20681;-62
2023/04/11 05:13:55;;;;;;;6.43;1.83;;;10.80;79.90;;;13.54;55.52;100567.59;5036193;28;20210;-64
2023/04/11 05:16:22;;;;;;;4.27;1.77;;;10.80;80.50;;;13.50;55.81;100575.06;5035605;28;20209;-64
2023/04/11 05:18:49;;;;;;;5.03;1.83;;;10.80;80.60;;;13.47;55.96;100567.56;5035572;28;20659;-65
2023/04/11 05:21:16;;;;;;;3.63;1.70;;;10.80;80.60;;;13.45;56.04;100571.41;5035127;28;20220;-65
2023/04/11 05:23:44;;;;;;;5.80;1.87;;;10.70;80.40;;;13.43;55.91;100568.94;5035247;28;20195;-63
2023/04/11 05:26:12;;;;;;;6.53;1.87;;;10.70;80.40;;;13.40;55.73;100569.38;5035122;28;20203;-63
2023/04/11 05:28:41;;;;;;;2.37;1.60;;;10.70;80.40;;;13.40;55.93;100581.75;5034984;28;20248;-61
2023/04/11 05:31:08;;;;;;;2.77;1.43;;;10.70;80.40;;;13.40;55.88;100590.50;5034842;28;20194;-63
2023/04/11 05:33:37;;;;;;;2.17;1.50;;;10.70;80.30;;;13.39;55.84;100583.59;5034871;28;20244;-64
2023/04/11 05:36:05;;;;;;;2.33;1.40;;;10.70;80.10;;;13.43;55.91;100591.94;5034826;28;20201;-62
2023/04/11 05:38:32;;;;;;;2.87;1.57;;;10.70;81.20;;;13.47;55.84;100585.25;5034612;28;20204;-62
2023/04/11 05:41:00;;;;;;;2.10;1.83;;;10.70;80.40;;;13.51;55.71;100582.00;5035284;28;20546;-62
2023/04/11 05:43:27;;;;;;;6.03;1.50;;;10.70;80.50;;;13.55;55.74;100593.00;5033655;28;20203;-63
2023/04/11 05:45:54;;;;;;;3.80;1.70;;;10.70;80.50;;;13.58;55.72;100589.97;5034907;28;20218;-63
2023/04/11 05:48:22;;;;;;;4.73;1.73;;;10.70;81.60;;;13.60;55.40;100595.06;5035050;28;20191;-63
2023/04/11 05:50:50;;;;;;;3.70;2.00;;;10.80;80.50;;;13.56;55.45;100586.72;5033505;28;20203;-65
2023/04/11 05:53:17;;;;;;;2.90;1.53;;;10.80;80.50;;;13.60;55.50;100589.78;5034067;28;20191;-65
2023/04/11 05:55:44;;;;;;;2.80;1.80;;;10.80;80.50;;;13.65;55.51;100587.34;5034916;28;20210;-64
2023/04/11 05:58:13;;;;;;;3.10;1.73;;;10.80;80.60;;;13.74;55.46;100594.09;5034870;28;20248;-62
2023/04/11 06:00:40;;;;;;;3.33;1.70;;;10.80;80.80;;;13.75;55.35;100596.53;5034434;28;20202;-63
2023/04/11 06:03:08;;;;;;;3.13;1.67;;;10.80;80.50;;;13.75;55.32;100611.59;5034544;28;20662;-64
2023/04/11 06:05:35;;;;;;;5.23;1.90;;;10.90;80.40;;;13.73;55.65;100608.34;5033638;28;20313;-62
2023/04/11 06:08:05;;;;;;;3.33;1.77;;;10.90;80.70;;;13.71;55.48;100605.06;5033869;28;20183;-63
2023/04/11 06:10:34;;;;;;;3.83;2.10;;;10.90;80.90;;;13.64;55.64;100593.66;5034136;28;20582;-62
2023/04/11 06:13:05;;;;;;;3.80;1.90;;;10.80;80.80;;;13.62;55.93;100596.47;5034033;28;20636;-62
2023/04/11 06:15:34;;;;;;;6.07;1.97;;;10.90;81.40;;;13.62;56.05;100606.25;5032538;28;20218;-62
2023/04/11 06:18:01;;;;;;;5.57;2.53;;;10.80;81.50;;;13.65;56.13;100605.84;5033008;28;20206;-62
2023/04/11 06:20:28;;;;;;;5.57;2.47;;;10.80;82.40;;;13.72;55.92;100609.34;5049391;28;20278;-65
2023/04/11 06:22:56;;;;;;;4.53;2.47;;;10.80;82.00;;;13.74;56.25;100604.69;5033460;28;20202;-64
2023/04/11 06:25:23;;;;;;;5.73;2.67;;;10.90;81.80;;;13.78;56.25;100608.56;5049000;28;20218;-64
2023/04/11 06:27:50;;;;;;;5.87;2.90;;;10.90;82.00;;;13.85;56.00;100618.16;5034651;28;20198;-65
2023/04/11 06:30:17;;;;;;;9.80;3.93;;;10.90;82.00;;;13.89;56.24;100618.56;5034795;28;20643;-63
2023/04/11 06:32:46;;;;;;;8.10;3.80;;;10.90;82.00;;;13.92;56.08;100618.16;5034862;28;20651;-64
2023/04/11 06:35:13;;;;;;;5.77;3.50;;;11.00;82.20;;;13.94;56.06;100624.91;5033381;28;20218;-61
2023/04/11 06:37:41;;;;;;;7.53;3.57;;;11.00;82.00;;;14.00;56.01;100626.72;5033857;28;20186;-63
2023/04/11 06:40:09;;;;;;;10.10;4.10;;;11.00;82.00;;;14.10;55.91;100623.69;5033889;28;20278;-62
2023/04/11 06:42:36;;;;;;;6.20;3.60;;;11.10;82.20;;;14.17;55.94;100625.34;5033988;28;20190;-63
2023/04/11 06:45:04;;;;;;;7.17;3.40;;;11.10;82.20;;;14.23;55.71;100626.38;5032362;28;20228;-64
2023/04/11 06:47:32;;;;;;;5.87;3.47;;;11.20;82.30;;;14.25;55.67;100619.88;5048436;28;20761;-62
2023/04/11 06:50:00;;;;;;;8.50;4.00;;;11.20;82.10;;;14.28;55.50;100634.56;5032697;28;20203;-61
2023/04/11 06:52:27;;;;;;;6.83;4.10;;;11.30;81.90;;;14.30;55.54;100631.69;5033202;28;20225;-62
2023/04/11 06:54:54;;;;;;;6.00;3.53;;;11.30;82.00;;;14.32;55.47;100641.09;5031933;28;20750;-63
2023/04/11 06:57:21;;;;;;;6.67;3.70;;;11.30;82.00;;;14.36;55.73;100626.44;5033371;28;20647;-64
2023/04/11 06:59:48;;;;;;;8.53;3.90;;;11.30;82.10;;;14.42;55.70;100638.88;5033468;28;20195;-64
2023/04/11 07:02:15;;;;;;;7.20;3.83;;;11.40;82.20;;;14.43;55.53;100637.06;5033622;28;20217;-65
2023/04/11 07:04:42;;;;;;;7.93;3.63;;;11.40;81.80;;;14.47;55.56;100644.41;5032400;28;20746;-63
2023/04/11 07:07:11;;;;;;;13.17;4.00;;;11.50;81.70;;;14.50;55.14;100651.91;5033062;28;20218;-65
2023/04/11 07:09:38;;;;;;;8.93;3.77;;;11.50;81.40;;;14.50;55.06;100653.78;5033890;28;20260;-64
2023/04/11 07:12:05;;;;;;;7.87;2.70;;;11.50;81.10;;;14.50;55.09;100659.84;5013947;28;20723;-62
2023/04/11 07:14:32;;;;;;;5.27;3.30;;;11.50;80.80;;;14.51;54.90;100656.22;5031587;28;20752;-62
2023/04/11 07:17:00;;;;;;;5.87;3.20;;;11.50;80.70;;;14.55;54.76;100660.06;5048765;28;20674;-61
2023/04/11 07:19:27;;;;;;;8.43;3.30;;;11.60;80.60;;;14.58;54.85;100657.03;5033526;28;20214;-62
2023/04/11 07:21:55;;;;;;;6.73;3.67;;;11.60;80.40;;;14.62;54.62;100663.53;5033741;28;20186;-63
2023/04/11 07:24:24;;;;;;;8.53;3.43;;;11.70;80.20;;;14.67;54.49;100661.09;5032411;28;20214;-63
2023/04/11 07:26:53;;;;;;;6.57;3.13;;;11.70;80.10;;;14.75;54.10;100660.09;5034374;28;20210;-64
2023/04/11 07:29:20;;;;;;;4.60;2.90;;;11.80;79.90;;;14.85;54.14;100652.56;5032918;28;20301;-67
2023/04/11 07:31:48;;;;;;;6.47;2.77;;;11.80;79.90;;;14.99;53.84;100663.97;5033345;28;20190;-65
2023/04/11 07:34:15;;;;;;;5.57;2.83;;;11.80;79.90;;;15.10;53.54;100665.97;5032514;28;20210;-65
2023/04/11 07:36:42;;;;;;;4.40;2.70;;;11.90;79.30;;;15.18;53.35;100663.13;5048075;28;20691;-64
2023/04/11 07:39:11;;;;;;;9.23;3.13;;;12.00;79.00;;;15.28;52.80;100666.19;5033398;28;20202;-63
2023/04/11 07:41:39;;;;;;;4.07;2.80;;;12.10;78.20;;;15.55;52.68;100659.81;5047613;28;20202;-64
2023/04/11 07:44:08;;;;;;;8.17;2.77;;;12.20;78.50;;;15.69;52.01;100661.38;5033050;28;20222;-65
2023/04/11 07:46:35;;;;;;;7.87;2.87;;;12.30;77.90;;;15.71;51.37;100659.38;5033295;28;20253;-64
2023/04/11 07:49:02;;;;;;;7.07;3.40;;;12.40;76.70;;;15.72;51.00;100655.66;5048516;28;20219;-63
2023/04/11 07:51:30;;;;;;;4.13;3.10;;;12.50;76.20;;;15.68;51.12;100659.78;5033328;28;20566;-64
2023/04/11 07:53:57;;;;;;;8.67;3.20;;;12.60;76.20;;;15.59;51.40;100671.66;5033598;28;20214;-64
2023/04/11 07:56:24;;;;;;;7.43;3.37;;;12.60;75.80;;;15.50;51.21;100667.56;5033477;28;20279;-64
2023/04/11 07:58:53;;;;;;;11.80;3.33;;;12.60;75.60;;;15.38;51.34;100664.72;5033084;28;20202;-64
2023/04/11 08:01:21;;;;;;;4.00;3.10;;;12.50;75.70;;;15.28;51.62;100661.69;5032155;28;20253;-63
2023/04/11 08:03:48;;;;;;;8.23;3.20;;;12.50;76.10;;;15.23;52.16;100688.03;5032612;28;20206;-63
2023/04/11 08:06:15;;;;;;;7.70;3.50;;;12.40;76.30;;;15.24;52.22;100686.16;5032759;28;20210;-63
2023/04/11 08:08:43;;;;;;;9.23;3.83;;;12.40;76.80;;;15.31;52.16;100689.63;5033403;28;20194;-62
2023/04/11 08:11:10;;;;;;;4.93;2.47;;;12.40;76.50;;;15.40;51.87;100688.41;5031591;28;20205;-66
2023/04/11 08:13:38;;;;;;;7.33;2.63;;;12.40;75.80;;;15.52;51.00;100686.78;5015090;28;20213;-65
2023/04/11 08:16:10;;;;;;;4.97;2.87;;;12.50;75.70;;;15.59;51.01;100687.56;5015705;28;20210;-64
2023/04/11 08:18:40;;;;;;;3.60;2.93;;;12.50;75.10;;;15.63;49.94;100696.75;5033249;28;20604;-62
2023/04/11 08:21:10;;;;;;;5.83;2.87;;;12.50;74.30;;;15.65;49.87;100692.03;5033782;28;20206;-63
2023/04/11 08:23:38;;;;;;;8.30;2.70;;;12.60;73.50;;;15.66;49.88;100688.38;5033401;28;20190;-68
2023/04/11 08:26:06;;;;;;;6.10;2.83;;;12.70;74.30;;;15.69;50.04;100693.22;5036970;28;20210;-64
2023/04/11 08:28:34;;;;;;;6.20;4.60;;;12.70;73.70;;;15.72;49.96;100687.53;5035753;28;20202;-64
2023/04/11 08:31:02;;;;;;;5.93;2.83;;;12.70;73.70;;;15.72;49.48;100689.34;5037369;28;20273;-65
2023/04/11 08:33:32;;;;;;;8.07;3.13;;;12.70;72.70;;;15.70;48.90;100696.72;5041921;28;20213;-64
2023/04/11 08:35:59;;;;;;;4.40;2.00;;;12.70;71.80;;;15.71;48.65;100696.53;5038771;28;20555;-65
2023/04/11 08:38:26;;;;;;;3.93;2.50;;;12.70;72.10;;;15.68;48.75;100691.63;5036720;28;20190;-63
2023/04/11 08:40:54;;;;;;;3.83;2.67;;;12.70;71.80;;;15.66;49.06;100687.53;5034971;28;20225;-64
2023/04/11 08:43:21;;;;;;;5.43;2.80;;;12.70;71.80;;;15.66;49.05;100698.16;5036196;28;20205;-65
2023/04/11 08:45:48;;;;;;;3.00;1.93;;;12.70;71.90;;;15.73;48.92;100702.44;5035621;28;20216;-64
2023/04/11 08:48:15;;;;;;;5.80;2.50;;;12.80;72.10;;;15.78;48.76;100699.97;5036152;28;20276;-65
2023/04/11 08:50:44;;;;;;;4.27;2.00;;;12.80;71.70;;;15.87;48.40;100711.16;5051400;28;20195;-65
2023/04/11 08:53:13;;;;;;;3.43;2.00;;;12.80;70.70;;;15.91;47.45;100707.88;5035855;28;20547;-63
2023/04/11 08:55:47;;;;;;;6.70;2.20;;;12.90;70.10;;;15.88;47.25;100710.94;5038258;28;20229;-64
2023/04/11 08:58:14;;;;;;;4.77;1.90;;;12.80;69.20;;;15.81;46.87;100717.31;5031371;28;20612;-65
2023/04/11 09:00:41;;;;;;;4.43;1.67;;;12.90;69.20;;;15.77;47.42;100716.91;5037303;28;20544;-63
2023/04/11 09:03:11;;;;;;;3.33;1.63;;;12.90;69.30;;;15.83;47.77;100718.72;5036395;28;20308;-62
2023/04/11 09:05:41;;;;;;;5.60;2.13;;;12.90;69.60;;;15.95;47.32;100727.66;5032706;28;20238;-64
2023/04/11 09:08:12;;;;;;;5.17;2.53;;;12.90;69.50;;;16.21;47.16;100732.88;5035369;28;20214;-65
2023/04/11 09:10:44;;;;;;;5.93;2.50;;;13.00;69.80;;;16.62;46.72;100742.28;5019043;28;20297;-65
2023/04/11 09:13:22;;;;;;;4.93;2.03;;;13.20;70.40;;;16.81;46.30;100751.97;5036416;28;20301;-63
2023/04/11 09:16:04;;;;;;;2.87;2.10;;;13.40;69.80;;;16.90;45.67;100756.81;5035489;28;20225;-65
2023/04/11 09:18:35;;;;;;;1.87;1.33;;;13.50;68.20;;;16.89;45.08;100759.72;5035729;28;20194;-64
2023/04/11 09:21:04;;;;;;;2.67;1.20;;;13.60;67.10;;;16.81;45.24;100770.59;5036125;28;20260;-65
2023/04/11 09:23:33;;;;;;;1.53;1.43;;;13.60;67.10;;;16.66;45.22;100778.84;5035597;28;20213;-64
2023/04/11 09:26:00;;;;;;;3.00;1.23;;;13.50;67.50;;;16.48;46.04;100783.22;5036238;28;20237;-64
2023/04/11 09:28:38;;;;;;;2.83;1.83;;;13.40;68.30;;;16.28;46.69;100770.03;5034649;28;20218;-65
2023/04/11 09:31:07;;;;;;;1.53;1.20;;;13.30;69.10;;;16.19;46.96;100780.06;5035640;28;20193;-63
2023/04/11 09:33:34;;;;;;;4.07;1.40;;;13.20;69.60;;;16.43;47.31;100775.88;5017966;28;20214;-63
2023/04/11 09:36:18;;;;;;;2.33;1.60;;;13.10;70.80;;;16.87;47.08;100780.38;5035426;28;20222;-62
2023/04/11 09:38:47;;;;;;;3.30;1.60;;;13.20;71.60;;;17.74;46.54;100785.63;5036426;28;20274;-64
2023/04/11 09:41:15;;;;;;;1.60;1.50;;;13.50;72.60;;;19.23;44.48;100780.44;5035986;28;20194;-65
2023/04/11 09:43:50;;;;;;;2.90;1.80;;;13.90;72.80;;;20.23;42.90;100777.41;5034501;28;20587;-65
2023/04/11 09:46:19;;;;;;;3.27;1.90;;;14.60;71.60;;;20.61;41.16;100778.69;5034952;28;20190;-62
2023/04/11 09:48:48;;;;;;;3.03;1.53;;;15.10;69.40;;;20.76;40.03;100765.59;5035420;28;20245;-64
2023/04/11 09:51:16;;;;;;;4.10;1.70;;;15.60;66.80;;;21.08;40.12;100774.75;5034297;28;20286;-63
2023/04/11 09:54:04;;;;;;;3.90;1.80;;;16.00;65.60;;;21.80;38.47;100799.69;5035740;28;20240;-62
2023/04/11 09:56:35;;;;;;;4.73;2.37;;;16.40;63.70;;;21.65;36.04;100778.06;5037563;28;20191;-63
2023/04/11 09:59:03;;;;;;;5.67;1.90;;;16.70;58.40;;;21.35;35.96;100786.44;5035141;28;20229;-66
2023/04/11 10:01:31;;;;;;;6.77;2.00;;;16.90;56.00;;;21.31;34.27;100787.97;5034728;28;20647;-64
2023/04/11 10:03:59;;;;;;;2.67;1.70;;;16.90;53.70;;;20.86;34.67;100808.59;5034495;28;20253;-64
2023/04/11 10:06:32;;;;;;;2.90;1.40;;;16.80;53.20;;;20.15;34.93;100811.69;5033962;28;20660;-63
2023/04/11 10:09:11;;;;;;;3.17;1.17;;;16.50;52.20;;;19.24;35.40;100809.56;5033195;28;20534;-63
2023/04/11 10:11:41;;;;;;;1.30;1.00;;;16.00;51.90;;;18.52;36.72;100804.47;5035452;28;20635;-63
2023/04/11 10:14:16;;;;;;;3.70;2.10;;;15.60;53.30;;;17.95;38.48;100817.16;5034522;28;20218;-65
2023/04/11 10:17:14;;;;;;;3.57;1.43;;;15.20;54.90;;;17.42;39.92;100808.81;5034236;28;20260;-63